sensor_id;sensor_type;location;lat;lon;timestamp;pressure;altitude;pressure_sealevel;temperature;humidity
56928;BME280;60850;52.502;13.426;2023-02-03T00:00:44;101717.84;;;3.84;100.00
56928;BME280;60850;52.502;13.426;2023-02-03T00:03:29;101718.84;;;3.92;100.00
56928;BME280;60850;52.502;13.426;2023-02-03T00:05:55;101710.16;;;3.98;100.00
56928;BME280;60850;52.502;13.426;2023-02-03T00:08:24;101704.03;;;4.00;100.00
56928;BME280;60850;52.502;13.426;2023-02-03T00:10:51;101698.75;;;4.00;100.00
56928;BME280;60850;52.502;13.426;2023-02-03T00:13:18;101697.97;;;4.06;100.00
56928;BME280;60850;52.502;13.426;2023-02-03T00:15:45;101690.06;;;4.07;100.00
56928;BME280;60850;52.502;13.426;2023-02-03T00:18:12;101685.75;;;4.14;100.00
56928;BME280;60850;52.502;13.426;2023-02-03T00:20:39;101677.94;;;4.20;100.00
56928;BME280;60850;52.502;13.426;2023-02-03T00:23:07;101674.41;;;4.18;100.00
56928;BME280;60850;52.502;13.426;2023-02-03T00:25:37;101666.41;;;4.15;100.00
56928;BME280;60850;52.502;13.426;2023-02-03T00:28:05;101655.84;;;4.12;100.00
56928;BME280;60850;52.502;13.426;2023-02-03T00:30:33;101654.97;;;4.13;100.00
56928;BME280;60850;52.502;13.426;2023-02-03T00:33:00;101646.03;;;4.02;100.00
56928;BME280;60850;52.502;13.426;2023-02-03T00:35:27;101639.81;;;3.98;100.00
56928;BME280;60850;52.502;13.426;2023-02-03T00:37:55;101631.97;;;4.03;100.00
56928;BME280;60850;52.502;13.426;2023-02-03T00:40:24;101631.19;;;4.10;100.00
56928;BME280;60850;52.502;13.426;2023-02-03T00:42:53;101626.81;;;4.12;100.00
56928;BME280;60850;52.502;13.426;2023-02-03T00:45:20;101612.75;;;4.14;100.00
56928;BME280;60850;52.502;13.426;2023-02-03T00:47:50;101598.75;;;4.19;100.00
56928;BME280;60850;52.502;13.426;2023-02-03T00:50:16;101593.38;;;4.09;100.00
56928;BME280;60850;52.502;13.426;2023-02-03T00:52:43;101602.00;;;3.99;100.00
56928;BME280;60850;52.502;13.426;2023-02-03T00:55:10;101603.94;;;4.12;100.00
56928;BME280;60850;52.502;13.426;2023-02-03T00:57:37;101601.22;;;4.08;100.00
56928;BME280;60850;52.502;13.426;2023-02-03T01:00:06;101608.22;;;4.04;100.00
56928;BME280;60850;52.502;13.426;2023-02-03T01:02:34;101604.84;;;4.14;100.00
56928;BME280;60850;52.502;13.426;2023-02-03T01:05:01;101602.06;;;4.02;100.00
56928;BME280;60850;52.502;13.426;2023-02-03T01:07:30;101594.97;;;4.00;100.00
56928;BME280;60850;52.502;13.426;2023-02-03T01:09:57;101593.16;;;3.96;100.00
56928;BME280;60850;52.502;13.426;2023-02-03T01:12:24;101581.75;;;3.97;100.00
56928;BME280;60850;52.502;13.426;2023-02-03T01:14:51;101574.72;;;3.99;100.00
56928;BME280;60850;52.502;13.426;2023-02-03T01:17:19;101581.88;;;4.06;100.00
56928;BME280;60850;52.502;13.426;2023-02-03T01:19:46;101586.28;;;4.07;100.00
56928;BME280;60850;52.502;13.426;2023-02-03T01:22:13;101573.13;;;4.10;100.00
56928;BME280;60850;52.502;13.426;2023-02-03T01:24:39;101566.03;;;4.06;100.00
56928;BME280;60850;52.502;13.426;2023-02-03T01:27:07;101552.91;;;4.10;100.00
56928;BME280;60850;52.502;13.426;2023-02-03T01:29:33;101552.84;;;4.06;100.00
56928;BME280;60850;52.502;13.426;2023-02-03T01:32:00;101557.22;;;4.05;100.00
56928;BME280;60850;52.502;13.426;2023-02-03T01:34:29;101544.81;;;3.98;100.00
56928;BME280;60850;52.502;13.426;2023-02-03T01:36:56;101533.50;;;4.08;100.00
56928;BME280;60850;52.502;13.426;2023-02-03T01:39:22;101533.56;;;4.10;100.00
56928;BME280;60850;52.502;13.426;2023-02-03T01:41:50;101528.28;;;4.10;100.00
56928;BME280;60850;52.502;13.426;2023-02-03T01:44:48;101521.31;;;4.17;100.00
56928;BME280;60850;52.502;13.426;2023-02-03T01:47:23;101510.78;;;4.20;100.00
56928;BME280;60850;52.502;13.426;2023-02-03T01:49:56;101506.38;;;4.17;100.00
56928;BME280;60850;52.502;13.426;2023-02-03T01:52:25;101493.13;;;4.12;100.00
56928;BME280;60850;52.502;13.426;2023-02-03T01:54:55;101478.16;;;4.11;100.00
56928;BME280;60850;52.502;13.426;2023-02-03T01:57:26;101471.94;;;4.08;100.00
56928;BME280;60850;52.502;13.426;2023-02-03T01:59:57;101477.28;;;4.11;100.00
56928;BME280;60850;52.502;13.426;2023-02-03T02:02:25;101470.00;;;3.92;100.00
56928;BME280;60850;52.502;13.426;2023-02-03T02:04:56;101474.41;;;3.94;100.00
56928;BME280;60850;52.502;13.426;2023-02-03T02:07:25;101473.50;;;3.89;100.00
56928;BME280;60850;52.502;13.426;2023-02-03T02:09:53;101475.19;;;3.85;100.00
56928;BME280;60850;52.502;13.426;2023-02-03T02:12:21;101458.56;;;3.90;100.00
56928;BME280;60850;52.502;13.426;2023-02-03T02:14:48;101444.41;;;3.84;100.00
56928;BME280;60850;52.502;13.426;2023-02-03T02:17:28;101444.50;;;3.94;100.00
56928;BME280;60850;52.502;13.426;2023-02-03T02:23:53;101421.47;;;3.76;100.00
56928;BME280;60850;52.502;13.426;2023-02-03T02:26:36;101404.66;;;3.69;100.00
56928;BME280;60850;52.502;13.426;2023-02-03T02:29:23;101405.63;;;3.76;100.00
56928;BME280;60850;52.502;13.426;2023-02-03T02:32:21;101394.16;;;3.72;100.00
56928;BME280;60850;52.502;13.426;2023-02-03T02:35:02;101375.66;;;3.69;100.00
56928;BME280;60850;52.502;13.426;2023-02-03T02:37:37;101365.09;;;3.68;100.00
56928;BME280;60850;52.502;13.426;2023-02-03T02:40:16;101351.84;;;3.62;100.00
56928;BME280;60850;52.502;13.426;2023-02-03T02:42:57;101353.44;;;3.47;100.00
56928;BME280;60850;52.502;13.426;2023-02-03T02:45:29;101341.06;;;3.43;100.00
56928;BME280;60850;52.502;13.426;2023-02-03T02:48:03;101337.66;;;3.50;100.00
56928;BME280;60850;52.502;13.426;2023-02-03T02:50:34;101333.94;;;3.35;100.00
56928;BME280;60850;52.502;13.426;2023-02-03T02:53:04;101331.22;;;3.28;100.00
56928;BME280;60850;52.502;13.426;2023-02-03T02:55:46;101322.63;;;3.42;100.00
56928;BME280;60850;52.502;13.426;2023-02-03T02:58:18;101325.19;;;3.37;100.00
56928;BME280;60850;52.502;13.426;2023-02-03T03:00:47;101311.03;;;3.27;100.00
56928;BME280;60850;52.502;13.426;2023-02-03T03:03:18;101303.03;;;3.21;100.00
56928;BME280;60850;52.502;13.426;2023-02-03T03:05:48;101297.59;;;3.08;100.00
56928;BME280;60850;52.502;13.426;2023-02-03T03:08:18;101288.06;;;3.17;100.00
56928;BME280;60850;52.502;13.426;2023-02-03T03:10:47;101296.09;;;3.26;100.00
56928;BME280;60850;52.502;13.426;2023-02-03T03:13:18;101289.03;;;3.25;100.00
56928;BME280;60850;52.502;13.426;2023-02-03T03:15:47;101280.28;;;3.26;100.00
56928;BME280;60850;52.502;13.426;2023-02-03T03:18:20;101279.31;;;3.20;100.00
56928;BME280;60850;52.502;13.426;2023-02-03T03:20:49;101268.00;;;3.28;100.00
56928;BME280;60850;52.502;13.426;2023-02-03T03:23:19;101255.47;;;3.09;100.00
56928;BME280;60850;52.502;13.426;2023-02-03T03:25:51;101245.78;;;3.07;100.00
56928;BME280;60850;52.502;13.426;2023-02-03T03:28:24;101233.50;;;3.07;100.00
56928;BME280;60850;52.502;13.426;2023-02-03T03:30:58;101224.78;;;3.14;100.00
56928;BME280;60850;52.502;13.426;2023-02-03T03:33:26;101225.66;;;3.13;100.00
56928;BME280;60850;52.502;13.426;2023-02-03T03:35:56;101215.16;;;3.16;100.00
56928;BME280;60850;52.502;13.426;2023-02-03T03:38:31;101218.69;;;3.18;100.00
56928;BME280;60850;52.502;13.426;2023-02-03T03:41:05;101207.31;;;3.21;100.00
56928;BME280;60850;52.502;13.426;2023-02-03T03:43:43;101201.09;;;3.14;100.00
56928;BME280;60850;52.502;13.426;2023-02-03T03:46:13;101208.16;;;3.18;100.00
56928;BME280;60850;52.502;13.426;2023-02-03T03:48:49;101208.34;;;3.35;100.00
56928;BME280;60850;52.502;13.426;2023-02-03T03:51:21;101199.63;;;3.44;100.00
56928;BME280;60850;52.502;13.426;2023-02-03T03:53:51;101190.97;;;3.54;100.00
56928;BME280;60850;52.502;13.426;2023-02-03T03:56:24;101185.69;;;3.52;100.00
56928;BME280;60850;52.502;13.426;2023-02-03T03:58:53;101185.63;;;3.49;100.00
56928;BME280;60850;52.502;13.426;2023-02-03T04:01:24;101175.09;;;3.51;100.00
56928;BME280;60850;52.502;13.426;2023-02-03T04:03:55;101182.19;;;3.55;100.00
56928;BME280;60850;52.502;13.426;2023-02-03T04:06:25;101190.16;;;3.61;100.00
56928;BME280;60850;52.502;13.426;2023-02-03T04:08:52;101177.03;;;3.70;100.00
56928;BME280;60850;52.502;13.426;2023-02-03T04:11:19;101171.81;;;3.79;100.00
56928;BME280;60850;52.502;13.426;2023-02-03T04:14:00;101161.38;;;3.92;100.00
56928;BME280;60850;52.502;13.426;2023-02-03T04:16:27;101161.41;;;3.95;100.00
56928;BME280;60850;52.502;13.426;2023-02-03T04:18:55;101148.25;;;3.99;100.00
56928;BME280;60850;52.502;13.426;2023-02-03T04:21:22;101135.97;;;4.04;100.00
56928;BME280;60850;52.502;13.426;2023-02-03T04:23:49;101138.66;;;4.09;100.00
56928;BME280;60850;52.502;13.426;2023-02-03T04:26:16;101131.63;;;4.14;100.00
56928;BME280;60850;52.502;13.426;2023-02-03T04:28:43;101117.59;;;4.18;100.00
56928;BME280;60850;52.502;13.426;2023-02-03T04:31:10;101123.78;;;4.25;100.00
56928;BME280;60850;52.502;13.426;2023-02-03T04:33:37;101120.31;;;4.33;100.00
56928;BME280;60850;52.502;13.426;2023-02-03T04:36:08;101115.94;;;4.41;100.00
56928;BME280;60850;52.502;13.426;2023-02-03T04:38:35;101105.41;;;4.45;100.00
56928;BME280;60850;52.502;13.426;2023-02-03T04:41:02;101108.09;;;4.52;100.00
56928;BME280;60850;52.502;13.426;2023-02-03T04:43:31;101092.25;;;4.58;100.00
56928;BME280;60850;52.502;13.426;2023-02-03T04:46:00;101077.28;;;4.62;100.00
56928;BME280;60850;52.502;13.426;2023-02-03T04:48:27;101086.13;;;4.67;100.00
56928;BME280;60850;52.502;13.426;2023-02-03T04:50:54;101073.78;;;4.72;100.00
56928;BME280;60850;52.502;13.426;2023-02-03T04:53:22;101059.72;;;4.70;100.00
56928;BME280;60850;52.502;13.426;2023-02-03T04:55:49;101056.22;;;4.77;100.00
56928;BME280;60850;52.502;13.426;2023-02-03T04:58:16;101054.47;;;4.84;100.00
56928;BME280;60850;52.502;13.426;2023-02-03T05:00:43;101048.31;;;4.91;100.00
56928;BME280;60850;52.502;13.426;2023-02-03T05:03:09;101047.44;;;5.04;100.00
56928;BME280;60850;52.502;13.426;2023-02-03T05:05:36;101041.31;;;5.08;100.00
56928;BME280;60850;52.502;13.426;2023-02-03T05:08:03;101033.34;;;5.13;100.00
56928;BME280;60850;52.502;13.426;2023-02-03T05:10:32;101035.13;;;5.17;100.00
56928;BME280;60850;52.502;13.426;2023-02-03T05:12:59;101036.03;;;5.22;100.00
56928;BME280;60850;52.502;13.426;2023-02-03T05:15:25;101028.97;;;5.26;100.00
56928;BME280;60850;52.502;13.426;2023-02-03T05:17:53;101021.03;;;5.30;100.00
56928;BME280;60850;52.502;13.426;2023-02-03T05:20:20;101018.41;;;5.36;100.00
56928;BME280;60850;52.502;13.426;2023-02-03T05:22:49;101021.03;;;5.44;100.00
56928;BME280;60850;52.502;13.426;2023-02-03T05:25:16;101017.50;;;5.46;100.00
56928;BME280;60850;52.502;13.426;2023-02-03T05:27:44;101007.78;;;5.51;100.00
56928;BME280;60850;52.502;13.426;2023-02-03T05:30:11;101002.50;;;5.58;100.00
56928;BME280;60850;52.502;13.426;2023-02-03T05:32:38;100994.53;;;5.64;100.00
56928;BME280;60850;52.502;13.426;2023-02-03T05:35:06;100998.94;;;5.66;100.00
56928;BME280;60850;52.502;13.426;2023-02-03T05:37:33;100994.53;;;5.73;100.00
56928;BME280;60850;52.502;13.426;2023-02-03T05:40:02;100986.56;;;5.81;100.00
56928;BME280;60850;52.502;13.426;2023-02-03T05:42:48;100982.09;;;5.90;100.00
56928;BME280;60850;52.502;13.426;2023-02-03T05:45:17;100982.13;;;5.96;100.00
56928;BME280;60850;52.502;13.426;2023-02-03T05:47:44;100975.94;;;5.97;100.00
56928;BME280;60850;52.502;13.426;2023-02-03T05:50:11;100960.03;;;6.05;100.00
56928;BME280;60850;52.502;13.426;2023-02-03T05:52:38;100960.00;;;6.11;100.00
56928;BME280;60850;52.502;13.426;2023-02-03T05:55:05;100954.63;;;6.26;100.00
56928;BME280;60850;52.502;13.426;2023-02-03T05:57:32;100949.34;;;6.25;100.00
56928;BME280;60850;52.502;13.426;2023-02-03T06:00:00;100952.84;;;6.30;100.00
56928;BME280;60850;52.502;13.426;2023-02-03T06:02:27;100944.00;;;6.36;100.00
56928;BME280;60850;52.502;13.426;2023-02-03T06:04:54;100934.25;;;6.41;100.00
56928;BME280;60850;52.502;13.426;2023-02-03T06:07:21;100932.44;;;6.47;100.00
56928;BME280;60850;52.502;13.426;2023-02-03T06:09:47;100920.94;;;6.51;100.00
56928;BME280;60850;52.502;13.426;2023-02-03T06:12:14;100910.34;;;6.51;100.00
56928;BME280;60850;52.502;13.426;2023-02-03T06:14:41;100923.56;;;6.57;100.00
56928;BME280;60850;52.502;13.426;2023-02-03T06:17:09;100908.50;;;6.64;100.00
56928;BME280;60850;52.502;13.426;2023-02-03T06:19:36;100913.78;;;6.64;100.00
56928;BME280;60850;52.502;13.426;2023-02-03T06:22:05;100903.13;;;6.73;100.00
56928;BME280;60850;52.502;13.426;2023-02-03T06:24:32;100896.91;;;6.76;100.00
56928;BME280;60850;52.502;13.426;2023-02-03T06:26:59;100894.19;;;6.82;100.00
56928;BME280;60850;52.502;13.426;2023-02-03T06:29:26;100895.91;;;6.87;100.00
56928;BME280;60850;52.502;13.426;2023-02-03T06:31:53;100895.00;;;6.93;100.00
56928;BME280;60850;52.502;13.426;2023-02-03T06:34:21;100894.06;;;6.97;100.00
56928;BME280;60850;52.502;13.426;2023-02-03T06:36:48;100906.41;;;7.00;100.00
56928;BME280;60850;52.502;13.426;2023-02-03T06:39:14;100903.75;;;7.01;100.00
56928;BME280;60850;52.502;13.426;2023-02-03T06:41:41;100893.19;;;6.95;100.00
56928;BME280;60850;52.502;13.426;2023-02-03T06:44:08;100895.81;;;6.97;100.00
56928;BME280;60850;52.502;13.426;2023-02-03T06:46:35;100893.16;;;7.01;100.00
56928;BME280;60850;52.502;13.426;2023-02-03T06:49:02;100881.63;;;7.07;100.00
56928;BME280;60850;52.502;13.426;2023-02-03T06:51:37;100879.72;;;7.16;100.00
56928;BME280;60850;52.502;13.426;2023-02-03T06:54:04;100865.59;;;7.16;100.00
56928;BME280;60850;52.502;13.426;2023-02-03T06:56:32;100857.66;;;7.16;100.00
56928;BME280;60850;52.502;13.426;2023-02-03T06:58:59;100857.63;;;7.18;100.00
56928;BME280;60850;52.502;13.426;2023-02-03T07:01:26;100863.81;;;7.18;100.00
56928;BME280;60850;52.502;13.426;2023-02-03T07:03:54;100853.19;;;7.18;100.00
56928;BME280;60850;52.502;13.426;2023-02-03T07:06:22;100838.16;;;7.20;100.00
56928;BME280;60850;52.502;13.426;2023-02-03T07:08:54;100840.88;;;7.15;100.00
56928;BME280;60850;52.502;13.426;2023-02-03T07:11:22;100832.88;;;7.19;100.00
56928;BME280;60850;52.502;13.426;2023-02-03T07:13:48;100829.31;;;7.21;100.00
56928;BME280;60850;52.502;13.426;2023-02-03T07:16:15;100825.75;;;7.24;100.00
56928;BME280;60850;52.502;13.426;2023-02-03T07:18:42;100825.75;;;7.24;100.00
56928;BME280;60850;52.502;13.426;2023-02-03T07:21:10;100819.50;;;7.29;100.00
56928;BME280;60850;52.502;13.426;2023-02-03T07:23:37;100820.31;;;7.36;100.00
56928;BME280;60850;52.502;13.426;2023-02-03T07:26:06;100812.34;;;7.36;100.00
56928;BME280;60850;52.502;13.426;2023-02-03T07:28:34;100800.88;;;7.34;100.00
56928;BME280;60850;52.502;13.426;2023-02-03T07:31:01;100795.50;;;7.40;100.00
56928;BME280;60850;52.502;13.426;2023-02-03T07:33:29;100795.50;;;7.38;100.00
56928;BME280;60850;52.502;13.426;2023-02-03T07:35:57;100787.56;;;7.38;100.00
56928;BME280;60850;52.502;13.426;2023-02-03T07:38:26;100782.25;;;7.40;100.00
56928;BME280;60850;52.502;13.426;2023-02-03T07:40:54;100776.97;;;7.37;100.00
56928;BME280;60850;52.502;13.426;2023-02-03T07:43:22;100773.41;;;7.41;100.00
56928;BME280;60850;52.502;13.426;2023-02-03T07:45:49;100774.22;;;7.44;100.00
56928;BME280;60850;52.502;13.426;2023-02-03T07:48:16;100762.69;;;7.46;100.00
56928;BME280;60850;52.502;13.426;2023-02-03T07:50:43;100758.22;;;7.51;100.00
56928;BME280;60850;52.502;13.426;2023-02-03T07:53:10;100740.41;;;7.59;100.00
56928;BME280;60850;52.502;13.426;2023-02-03T07:55:37;100754.44;;;7.67;100.00
56928;BME280;60850;52.502;13.426;2023-02-03T07:58:05;100741.97;;;7.74;100.00
56928;BME280;60850;52.502;13.426;2023-02-03T08:00:36;100742.84;;;7.76;100.00
56928;BME280;60850;52.502;13.426;2023-02-03T08:03:03;100728.50;;;7.87;100.00
56928;BME280;60850;52.502;13.426;2023-02-03T08:05:30;100723.16;;;7.89;100.00
56928;BME280;60850;52.502;13.426;2023-02-03T08:07:58;100718.66;;;7.94;100.00
56928;BME280;60850;52.502;13.426;2023-02-03T08:10:26;100714.19;;;7.97;100.00
56928;BME280;60850;52.502;13.426;2023-02-03T08:12:53;100713.28;;;7.98;100.00
56928;BME280;60850;52.502;13.426;2023-02-03T08:15:24;100706.16;;;8.01;100.00
56928;BME280;60850;52.502;13.426;2023-02-03T08:17:52;100698.25;;;7.96;100.00
56928;BME280;60850;52.502;13.426;2023-02-03T08:20:19;100694.69;;;7.98;100.00
56928;BME280;60850;52.502;13.426;2023-02-03T08:22:46;100691.25;;;7.92;100.00
56928;BME280;60850;52.502;13.426;2023-02-03T08:25:13;100679.78;;;7.91;100.00
56928;BME280;60850;52.502;13.426;2023-02-03T08:27:41;100683.34;;;7.89;100.00
56928;BME280;60850;52.502;13.426;2023-02-03T08:30:12;100686.06;;;7.86;100.00
56928;BME280;60850;52.502;13.426;2023-02-03T08:32:39;100667.47;;;7.86;100.00
56928;BME280;60850;52.502;13.426;2023-02-03T08:35:07;100684.22;;;7.91;100.00
56928;BME280;60850;52.502;13.426;2023-02-03T08:37:35;100673.66;;;7.86;100.00
56928;BME280;60850;52.502;13.426;2023-02-03T08:40:02;100677.16;;;7.88;100.00
56928;BME280;60850;52.502;13.426;2023-02-03T08:42:29;100670.03;;;7.92;100.00
56928;BME280;60850;52.502;13.426;2023-02-03T08:44:56;100664.72;;;7.92;100.00
56928;BME280;60850;52.502;13.426;2023-02-03T08:47:23;100653.97;;;7.99;100.00
56928;BME280;60850;52.502;13.426;2023-02-03T08:49:50;100652.13;;;8.03;100.00
56928;BME280;60850;52.502;13.426;2023-02-03T08:52:19;100638.81;;;8.06;100.00
56928;BME280;60850;52.502;13.426;2023-02-03T08:54:46;100645.88;;;8.07;100.00
56928;BME280;60850;52.502;13.426;2023-02-03T08:57:14;100635.06;;;8.16;100.00
56928;BME280;60850;52.502;13.426;2023-02-03T08:59:43;100629.72;;;8.19;100.00
56928;BME280;60850;52.502;13.426;2023-02-03T09:02:16;100619.97;;;8.20;100.00
56928;BME280;60850;52.502;13.426;2023-02-03T09:04:44;100638.50;;;8.23;100.00
56928;BME280;60850;52.502;13.426;2023-02-03T09:07:11;100614.59;;;8.23;100.00
56928;BME280;60850;52.502;13.426;2023-02-03T09:09:40;100626.19;;;8.17;100.00
56928;BME280;60850;52.502;13.426;2023-02-03T09:12:08;100616.47;;;8.16;100.00
56928;BME280;60850;52.502;13.426;2023-02-03T09:14:37;100617.28;;;8.21;100.00
56928;BME280;60850;52.502;13.426;2023-02-03T09:17:04;100614.66;;;8.20;100.00
56928;BME280;60850;52.502;13.426;2023-02-03T09:19:33;100606.72;;;8.18;100.00
56928;BME280;60850;52.502;13.426;2023-02-03T09:22:01;100606.72;;;8.18;100.00
56928;BME280;60850;52.502;13.426;2023-02-03T09:24:28;100591.53;;;8.26;100.00
56928;BME280;60850;52.502;13.426;2023-02-03T09:26:56;100602.97;;;8.29;100.00
56928;BME280;60850;52.502;13.426;2023-02-03T09:29:28;100607.50;;;8.25;100.00
56928;BME280;60850;52.502;13.426;2023-02-03T09:31:56;100601.19;;;8.29;100.00
56928;BME280;60850;52.502;13.426;2023-02-03T09:34:23;100605.72;;;8.25;100.00
56928;BME280;60850;52.502;13.426;2023-02-03T09:36:49;100590.66;;;8.26;100.00
56928;BME280;60850;52.502;13.426;2023-02-03T09:39:18;100589.94;;;8.18;100.00
56928;BME280;60850;52.502;13.426;2023-02-03T09:42:07;100569.56;;;8.17;100.00
56928;BME280;60850;52.502;13.426;2023-02-03T09:44:43;100570.44;;;8.17;100.00
56928;BME280;60850;52.502;13.426;2023-02-03T09:47:15;100572.28;;;8.14;100.00
56928;BME280;60850;52.502;13.426;2023-02-03T09:49:45;100577.56;;;8.15;100.00
56928;BME280;60850;52.502;13.426;2023-02-03T09:52:18;100562.63;;;8.11;100.00
56928;BME280;60850;52.502;13.426;2023-02-03T09:54:53;100553.72;;;8.12;100.00
56928;BME280;60850;52.502;13.426;2023-02-03T09:57:27;100550.09;;;8.16;100.00
56928;BME280;60850;52.502;13.426;2023-02-03T09:59:59;100540.38;;;8.15;100.00
56928;BME280;60850;52.502;13.426;2023-02-03T10:02:38;100536.84;;;8.15;100.00
56928;BME280;60850;52.502;13.426;2023-02-03T10:05:19;100532.38;;;8.17;100.00
56928;BME280;60850;52.502;13.426;2023-02-03T10:07:55;100519.94;;;8.20;100.00
56928;BME280;60850;52.502;13.426;2023-02-03T10:10:37;100499.53;;;8.22;100.00
56928;BME280;60850;52.502;13.426;2023-02-03T10:13:13;100490.59;;;8.26;100.00
56928;BME280;60850;52.502;13.426;2023-02-03T10:16:10;100487.81;;;8.33;100.00
56928;BME280;60850;52.502;13.426;2023-02-03T10:18:46;100472.63;;;8.41;100.00
56928;BME280;60850;52.502;13.426;2023-02-03T10:21:20;100477.03;;;8.42;100.00
56928;BME280;60850;52.502;13.426;2023-02-03T10:23:55;100486.69;;;8.44;100.00
56928;BME280;60850;52.502;13.426;2023-02-03T10:26:27;100480.53;;;8.42;100.00
56928;BME280;60850;52.502;13.426;2023-02-03T10:28:56;100488.38;;;8.48;100.00
56928;BME280;60850;52.502;13.426;2023-02-03T10:31:25;100480.38;;;8.50;100.00
56928;BME280;60850;52.502;13.426;2023-02-03T10:33:58;100486.59;;;8.49;100.00
56928;BME280;60850;52.502;13.426;2023-02-03T10:36:34;100484.72;;;8.52;100.00
56928;BME280;60850;52.502;13.426;2023-02-03T10:39:14;100481.38;;;8.46;100.00
56928;BME280;60850;52.502;13.426;2023-02-03T10:41:43;100497.28;;;8.47;100.00
56928;BME280;60850;52.502;13.426;2023-02-03T10:44:12;100514.28;;;8.39;100.00
56928;BME280;60850;52.502;13.426;2023-02-03T10:46:43;100543.59;;;8.33;100.00
56928;BME280;60850;52.502;13.426;2023-02-03T10:49:12;100583.41;;;8.34;100.00
56928;BME280;60850;52.502;13.426;2023-02-03T10:51:47;100583.56;;;8.26;100.00
56928;BME280;60850;52.502;13.426;2023-02-03T10:54:29;100579.25;;;8.19;100.00
56928;BME280;60850;52.502;13.426;2023-02-03T10:57:02;100569.72;;;8.09;100.00
56928;BME280;60850;52.502;13.426;2023-02-03T10:59:34;100567.41;;;7.91;100.00
56928;BME280;60850;52.502;13.426;2023-02-03T11:02:08;100538.16;;;7.94;100.00
56928;BME280;60850;52.502;13.426;2023-02-03T11:04:37;100527.91;;;8.20;100.00
56928;BME280;60850;52.502;13.426;2023-02-03T11:07:06;100547.16;;;8.30;100.00
56928;BME280;60850;52.502;13.426;2023-02-03T11:09:35;100553.38;;;8.29;100.00
56928;BME280;60850;52.502;13.426;2023-02-03T11:12:10;100562.97;;;8.38;100.00
56928;BME280;60850;52.502;13.426;2023-02-03T11:14:40;100557.63;;;8.41;100.00
56928;BME280;60850;52.502;13.426;2023-02-03T11:17:15;100545.13;;;8.44;100.00
56928;BME280;60850;52.502;13.426;2023-02-03T11:19:44;100544.13;;;8.50;100.00
56928;BME280;60850;52.502;13.426;2023-02-03T11:22:12;100551.28;;;8.48;100.00
56928;BME280;60850;52.502;13.426;2023-02-03T11:24:41;100536.84;;;8.60;100.00
56928;BME280;60850;52.502;13.426;2023-02-03T11:27:12;100531.25;;;8.72;100.00
56928;BME280;60850;52.502;13.426;2023-02-03T11:29:43;100534.78;;;8.72;100.00
56928;BME280;60850;52.502;13.426;2023-02-03T11:32:17;100543.72;;;8.70;100.00
56928;BME280;60850;52.502;13.426;2023-02-03T11:34:54;100547.06;;;8.78;100.00
56928;BME280;60850;52.502;13.426;2023-02-03T11:37:27;100532.31;;;8.65;100.00
56928;BME280;60850;52.502;13.426;2023-02-03T11:39:56;100537.44;;;8.72;100.00
56928;BME280;60850;52.502;13.426;2023-02-03T11:42:23;100562.53;;;8.61;100.00
56928;BME280;60850;52.502;13.426;2023-02-03T11:44:52;100551.56;;;8.76;100.00
56928;BME280;60850;52.502;13.426;2023-02-03T11:47:43;100562.06;;;8.82;100.00
56928;BME280;60850;52.502;13.426;2023-02-03T11:50:22;100558.19;;;8.97;100.00
56928;BME280;60850;52.502;13.426;2023-02-03T11:53:13;100540.91;;;9.15;100.00
56928;BME280;60850;52.502;13.426;2023-02-03T11:56:01;100547.56;;;9.32;100.00
56928;BME280;60850;52.502;13.426;2023-02-03T12:01:51;100551.97;;;9.33;100.00
56928;BME280;60850;52.502;13.426;2023-02-03T12:04:28;100551.31;;;9.25;100.00
56928;BME280;60850;52.502;13.426;2023-02-03T12:10:12;100528.94;;;8.97;100.00
56928;BME280;60850;52.502;13.426;2023-02-03T12:12:50;100521.19;;;8.86;100.00
56928;BME280;60850;52.502;13.426;2023-02-03T12:15:37;100547.72;;;8.88;100.00
56928;BME280;60850;52.502;13.426;2023-02-03T12:18:22;100549.91;;;9.09;100.00
56928;BME280;60850;52.502;13.426;2023-02-03T12:21:05;100541.34;;;9.33;100.00
56928;BME280;60850;52.502;13.426;2023-02-03T12:23:47;100534.28;;;9.32;100.00
56928;BME280;60850;52.502;13.426;2023-02-03T12:26:21;100537.63;;;9.41;100.00
56928;BME280;60850;52.502;13.426;2023-02-03T12:29:00;100540.13;;;9.47;100.00
56928;BME280;60850;52.502;13.426;2023-02-03T12:31:34;100539.63;;;9.65;100.00
56928;BME280;60850;52.502;13.426;2023-02-03T12:34:14;100541.16;;;9.75;100.00
56928;BME280;60850;52.502;13.426;2023-02-03T12:36:44;100530.84;;;9.96;100.00
56928;BME280;60850;52.502;13.426;2023-02-03T12:39:17;100534.94;;;10.07;100.00
56928;BME280;60850;52.502;13.426;2023-02-03T12:41:51;100547.03;;;9.88;100.00
56928;BME280;60850;52.502;13.426;2023-02-03T12:44:25;100543.63;;;9.83;100.00
56928;BME280;60850;52.502;13.426;2023-02-03T12:47:12;100534.28;;;9.99;100.00
56928;BME280;60850;52.502;13.426;2023-02-03T12:49:47;100535.25;;;9.97;100.00
56928;BME280;60850;52.502;13.426;2023-02-03T12:52:22;100543.47;;;9.89;100.00
56928;BME280;60850;52.502;13.426;2023-02-03T12:54:59;100562.53;;;9.72;100.00
56928;BME280;60850;52.502;13.426;2023-02-03T12:57:33;100581.00;;;9.43;100.00
56928;BME280;60850;52.502;13.426;2023-02-03T13:00:12;100637.88;;;9.00;100.00
56928;BME280;60850;52.502;13.426;2023-02-03T13:02:51;100671.69;;;8.48;100.00
56928;BME280;60850;52.502;13.426;2023-02-03T13:05:27;100687.56;;;7.45;100.00
56928;BME280;60850;52.502;13.426;2023-02-03T13:08:00;100693.50;;;6.99;100.00